createdAt,value
2023-04-23T00:01:47.835Z,31.17
2023-04-23T00:04:16.452Z,31.20
2023-04-23T00:06:43.393Z,32.00
2023-04-23T00:09:12.236Z,31.70
2023-04-23T00:11:39.090Z,32.60
2023-04-23T00:14:05.973Z,31.88
2023-04-23T00:16:33.071Z,32.38
2023-04-23T00:18:59.719Z,32.88
2023-04-23T00:21:27.626Z,33.90
2023-04-23T00:23:54.397Z,34.67
2023-04-23T00:26:20.986Z,34.22
2023-04-23T00:28:47.517Z,34.85
2023-04-23T00:31:14.196Z,34.60
2023-04-23T00:33:40.954Z,33.22
2023-04-23T00:36:07.959Z,35.03
2023-04-23T00:38:34.543Z,35.38
2023-04-23T00:41:01.145Z,34.90
2023-04-23T00:43:28.547Z,35.80
2023-04-23T00:45:55.765Z,36.10
2023-04-23T00:48:22.482Z,36.75
2023-04-23T00:50:49.024Z,33.17
2023-04-23T00:53:15.601Z,35.85
2023-04-23T00:55:42.619Z,34.70
2023-04-23T00:58:09.304Z,35.60
2023-04-23T01:00:44.561Z,37.35
2023-04-23T01:03:11.251Z,38.38
2023-04-23T01:05:39.369Z,36.80
2023-04-23T01:08:06.536Z,37.08
2023-04-23T01:10:33.610Z,37.38
2023-04-23T01:13:00.370Z,36.58
2023-04-23T01:15:27.156Z,37.38
2023-04-23T01:17:53.836Z,36.35
2023-04-23T01:20:20.467Z,35.10
2023-04-23T01:22:47.168Z,35.25
2023-04-23T01:25:13.803Z,35.13
2023-04-23T01:27:41.641Z,35.17
2023-04-23T01:30:08.962Z,34.97
2023-04-23T01:32:36.011Z,34.67
2023-04-23T01:35:04.714Z,34.65
2023-04-23T01:37:32.649Z,33.30
2023-04-23T01:39:59.395Z,34.97
2023-04-23T01:42:26.044Z,34.92
2023-04-23T01:44:53.528Z,35.88
2023-04-23T01:47:21.212Z,35.53
2023-04-23T01:49:48.237Z,36.03
2023-04-23T01:52:14.873Z,36.28
2023-04-23T01:54:41.640Z,39.15
2023-04-23T01:57:09.684Z,37.80
2023-04-23T01:59:37.796Z,36.53
2023-04-23T02:02:04.524Z,35.65
2023-04-23T02:04:31.643Z,37.70
2023-04-23T02:06:58.287Z,35.60
2023-04-23T02:09:24.849Z,37.53
2023-04-23T02:11:51.421Z,36.28
2023-04-23T02:14:18.002Z,36.28
2023-04-23T02:16:44.990Z,36.65
2023-04-23T02:19:14.104Z,36.90
2023-04-23T02:21:42.604Z,36.50
2023-04-23T02:24:09.266Z,38.47
2023-04-23T02:26:36.961Z,38.03
2023-04-23T02:29:03.477Z,37.58
2023-04-23T02:31:30.111Z,37.42
2023-04-23T02:33:57.437Z,37.25
2023-04-23T02:36:24.019Z,39.03
2023-04-23T02:38:51.327Z,38.33
2023-04-23T02:41:17.984Z,39.97
2023-04-23T02:43:44.566Z,41.22
2023-04-23T02:46:11.120Z,39.28
2023-04-23T02:48:44.120Z,40.72
2023-04-23T02:51:13.089Z,39.95
2023-04-23T02:53:39.697Z,38.35
2023-04-23T02:56:07.242Z,40.50
2023-04-23T02:58:35.017Z,40.90
2023-04-23T03:01:02.269Z,39.42
2023-04-23T03:03:32.996Z,43.08
2023-04-23T03:06:03.283Z,43.00
2023-04-23T03:08:30.140Z,40.72
2023-04-23T03:10:56.876Z,40.95
2023-04-23T03:13:23.880Z,41.63
2023-04-23T03:15:51.516Z,39.97
2023-04-23T03:18:18.212Z,40.65
2023-04-23T03:20:48.230Z,41.28
2023-04-23T03:23:15.200Z,39.88
2023-04-23T03:25:41.900Z,40.55
2023-04-23T03:28:08.536Z,39.25
2023-04-23T03:30:35.523Z,40.10
2023-04-23T03:33:02.702Z,40.35
2023-04-23T03:35:29.453Z,38.80
2023-04-23T03:37:58.686Z,38.97
2023-04-23T03:40:25.896Z,39.13
2023-04-23T03:42:57.979Z,40.20
2023-04-23T03:45:38.902Z,38.05
2023-04-23T03:48:05.562Z,39.10
2023-04-23T03:50:34.451Z,41.47
2023-04-23T03:53:11.310Z,37.53
2023-04-23T03:56:12.986Z,39.03
2023-04-23T03:58:48.471Z,38.90
2023-04-23T04:01:15.234Z,41.22
2023-04-23T04:03:42.095Z,38.47
2023-04-23T04:06:09.218Z,40.55
2023-04-23T04:08:35.768Z,38.60
2023-04-23T04:11:02.458Z,40.92
2023-04-23T04:13:29.007Z,39.95
2023-04-23T04:15:56.017Z,39.78
2023-04-23T04:18:22.674Z,38.47
2023-04-23T04:20:51.151Z,38.92
2023-04-23T04:23:17.723Z,36.72
2023-04-23T04:25:45.876Z,38.08
2023-04-23T04:28:12.653Z,37.17
2023-04-23T04:30:40.401Z,38.03
2023-04-23T04:33:07.012Z,37.38
2023-04-23T04:35:33.579Z,38.05
2023-04-23T04:38:00.156Z,36.90
2023-04-23T04:40:28.495Z,36.30
2023-04-23T04:42:55.135Z,38.17
2023-04-23T04:45:21.744Z,37.70
2023-04-23T04:47:48.357Z,39.70
2023-04-23T04:50:15.182Z,37.97
2023-04-23T04:52:41.760Z,38.95
2023-04-23T04:55:08.825Z,36.78
2023-04-23T04:57:36.469Z,39.60
2023-04-23T05:00:21.019Z,37.92
2023-04-23T05:02:48.458Z,36.78
2023-04-23T05:05:15.272Z,37.58
2023-04-23T05:07:41.815Z,37.97
2023-04-23T05:10:08.715Z,38.22
2023-04-23T05:12:35.241Z,39.53
2023-04-23T05:15:01.750Z,38.95
2023-04-23T05:17:28.362Z,40.70
2023-04-23T05:19:54.929Z,40.47
2023-04-23T05:22:21.752Z,40.85
2023-04-23T05:24:48.424Z,41.75
2023-04-23T05:27:14.988Z,42.17
2023-04-23T05:29:41.489Z,43.85
2023-04-23T05:32:08.141Z,42.47
2023-04-23T05:34:34.708Z,44.67
2023-04-23T05:37:02.212Z,44.10
2023-04-23T05:39:28.800Z,45.83
2023-04-23T05:41:55.416Z,44.67
2023-04-23T05:44:22.026Z,45.30
2023-04-23T05:46:48.614Z,46.28
2023-04-23T05:49:15.267Z,46.58
2023-04-23T05:51:42.025Z,45.40
2023-04-23T05:54:08.589Z,51.25
2023-04-23T05:56:35.195Z,47.85
2023-04-23T05:59:01.735Z,46.38
2023-04-23T06:01:28.711Z,47.40
2023-04-23T06:03:55.749Z,48.38
2023-04-23T06:06:22.623Z,49.70
2023-04-23T06:08:50.931Z,47.50
2023-04-23T06:11:17.834Z,44.70
2023-04-23T06:13:44.345Z,44.28
2023-04-23T06:16:11.121Z,44.08
2023-04-23T06:18:39.114Z,46.42
2023-04-23T06:21:06.103Z,46.28
2023-04-23T06:23:33.359Z,44.75
2023-04-23T06:26:00.697Z,43.00
2023-04-23T06:28:27.234Z,42.17
2023-04-23T06:31:25.657Z,41.70
2023-04-23T06:33:52.492Z,42.85
2023-04-23T06:36:19.037Z,40.42
2023-04-23T06:38:45.638Z,39.92
2023-04-23T06:41:13.099Z,39.45
2023-04-23T06:43:39.689Z,39.03
2023-04-23T06:46:21.197Z,39.30
2023-04-23T06:48:47.745Z,38.72
2023-04-23T06:51:14.812Z,36.65
2023-04-23T06:53:41.389Z,35.83
2023-04-23T06:56:08.518Z,35.50
2023-04-23T06:58:35.111Z,34.58
2023-04-23T07:01:11.464Z,33.38
2023-04-23T07:03:38.327Z,31.10
2023-04-23T07:06:05.206Z,31.63
2023-04-23T07:08:32.184Z,30.70
2023-04-23T07:10:58.786Z,29.15
2023-04-23T07:13:25.514Z,29.73
2023-04-23T07:15:52.144Z,29.70
2023-04-23T07:18:18.953Z,31.05
2023-04-23T07:20:45.740Z,30.30
2023-04-23T07:23:12.321Z,28.48
2023-04-23T07:25:38.920Z,27.75
2023-04-23T07:28:05.581Z,26.88
2023-04-23T07:30:32.101Z,28.38
2023-04-23T07:32:59.073Z,26.45
2023-04-23T07:35:26.831Z,27.80
2023-04-23T07:37:55.977Z,25.83
2023-04-23T07:40:23.443Z,26.48
2023-04-23T07:42:50.478Z,25.67
2023-04-23T07:45:17.945Z,24.42
2023-04-23T07:47:46.371Z,25.10
2023-04-23T07:50:13.841Z,23.60
2023-04-23T07:52:40.761Z,24.05
2023-04-23T07:55:08.115Z,23.75
2023-04-23T07:57:34.627Z,21.38
2023-04-23T08:00:01.468Z,20.52
2023-04-23T08:02:38.690Z,19.45
2023-04-23T08:05:06.459Z,19.85
2023-04-23T08:07:33.227Z,17.67
2023-04-23T08:10:05.927Z,16.52
2023-04-23T08:12:35.795Z,14.52
2023-04-23T08:15:03.228Z,14.63
2023-04-23T08:17:36.977Z,11.90
2023-04-23T08:20:06.586Z,11.75
2023-04-23T08:24:59.734Z,12.05
2023-04-23T08:27:26.398Z,10.32
2023-04-23T08:29:52.881Z,9.88
2023-04-23T08:32:19.501Z,10.20
2023-04-23T08:34:46.121Z,9.35
2023-04-23T08:37:23.192Z,9.43
2023-04-23T08:39:54.075Z,9.95
2023-04-23T08:42:30.523Z,9.57
2023-04-23T08:44:57.662Z,9.07
2023-04-23T08:47:25.299Z,10.27
2023-04-23T08:49:54.818Z,10.57
2023-04-23T08:54:59.975Z,8.50
2023-04-23T08:57:26.842Z,9.20
2023-04-23T08:59:53.679Z,8.65
2023-04-23T09:02:20.649Z,9.05
2023-04-23T09:04:50.402Z,9.18
2023-04-23T09:07:18.352Z,8.50
2023-04-23T09:09:45.049Z,8.38
2023-04-23T09:12:11.784Z,8.57
2023-04-23T09:14:38.415Z,7.75
2023-04-23T09:17:05.295Z,7.30
2023-04-23T09:19:32.453Z,7.22
2023-04-23T09:22:02.004Z,7.28
2023-04-23T09:24:28.756Z,6.88
2023-04-23T09:26:55.393Z,7.45
2023-04-23T09:29:23.669Z,7.55
2023-04-23T09:31:56.456Z,7.45
2023-04-23T09:34:24.509Z,7.55
2023-04-23T09:36:53.193Z,7.25
2023-04-23T09:39:23.080Z,7.25
2023-04-23T09:41:53.372Z,7.75
2023-04-23T09:44:24.463Z,7.05
2023-04-23T09:46:51.071Z,7.10
2023-04-23T09:49:17.784Z,6.57
2023-04-23T09:51:46.853Z,6.97
2023-04-23T09:54:21.761Z,5.43
2023-04-23T09:56:56.907Z,4.65
2023-04-23T09:59:39.570Z,4.40
2023-04-23T10:02:13.407Z,4.50
2023-04-23T10:04:40.521Z,4.60
2023-04-23T10:07:18.841Z,4.78
2023-04-23T10:09:46.888Z,4.18
2023-04-23T10:14:46.386Z,4.78
2023-04-23T10:17:13.762Z,5.03
2023-04-23T10:19:43.472Z,4.05
2023-04-23T10:22:19.551Z,3.70
2023-04-23T10:24:49.700Z,3.60
2023-04-23T10:27:28.849Z,4.38
2023-04-23T10:30:06.557Z,3.90
2023-04-23T10:32:38.336Z,3.30
2023-04-23T10:35:06.517Z,3.40
2023-04-23T10:37:34.621Z,3.80
2023-04-23T10:40:16.302Z,3.40
2023-04-23T10:42:44.316Z,3.10
2023-04-23T10:45:23.945Z,3.10
2023-04-23T10:47:57.216Z,2.70
2023-04-23T10:50:29.112Z,2.85
2023-04-23T10:52:57.650Z,2.45
2023-04-23T10:55:27.491Z,2.60
2023-04-23T10:58:03.127Z,2.60
2023-04-23T11:00:50.966Z,2.88
2023-04-23T11:03:43.938Z,3.30
2023-04-23T11:06:20.164Z,3.47
2023-04-23T11:08:54.544Z,3.40
2023-04-23T11:11:39.708Z,3.33
2023-04-23T11:14:15.376Z,3.65
2023-04-23T11:16:42.380Z,6.05
2023-04-23T11:19:12.597Z,3.50
2023-04-23T11:22:06.161Z,3.00
2023-04-23T11:24:43.022Z,3.20
2023-04-23T11:27:15.024Z,3.55
2023-04-23T11:29:43.518Z,3.47
2023-04-23T11:32:12.999Z,3.70
2023-04-23T11:34:41.841Z,3.90
2023-04-23T11:37:10.999Z,3.90
2023-04-23T11:39:38.611Z,3.97
2023-04-23T11:42:05.808Z,3.30
2023-04-23T11:44:32.433Z,4.85
2023-04-23T11:47:02.502Z,4.93
2023-04-23T11:49:29.280Z,4.03
2023-04-23T11:51:59.636Z,4.07
2023-04-23T11:54:28.268Z,5.55
2023-04-23T11:56:56.462Z,25.98
2023-04-23T11:59:23.104Z,22.48
2023-04-23T12:01:51.692Z,3.72
2023-04-23T12:04:24.165Z,2.10
2023-04-23T12:06:52.324Z,3.83
2023-04-23T12:09:21.900Z,4.55
2023-04-23T12:11:50.924Z,2.63
2023-04-23T12:14:20.924Z,5.72
2023-04-23T12:16:52.391Z,4.43
2023-04-23T12:19:21.451Z,5.75
2023-04-23T12:21:48.150Z,2.72
2023-04-23T12:24:15.224Z,2.40
2023-04-23T12:26:45.957Z,2.30
2023-04-23T12:29:13.617Z,2.85
2023-04-23T12:31:40.562Z,2.92
2023-04-23T12:34:08.976Z,2.22
2023-04-23T12:36:39.765Z,2.30
2023-04-23T12:39:24.767Z,2.00
2023-04-23T12:42:01.528Z,2.15
2023-04-23T12:44:29.099Z,1.95
2023-04-23T12:47:03.353Z,2.13
2023-04-23T12:49:31.387Z,2.33
2023-04-23T12:52:02.509Z,1.80
2023-04-23T12:54:31.300Z,1.95
2023-04-23T12:57:02.771Z,1.70
2023-04-23T12:59:30.218Z,1.70
2023-04-23T13:01:57.411Z,1.63
2023-04-23T13:04:24.021Z,1.40
2023-04-23T13:06:50.769Z,1.30
2023-04-23T13:09:17.333Z,1.33
2023-04-23T13:11:44.035Z,1.40
2023-04-23T13:14:10.954Z,2.70
2023-04-23T13:16:37.912Z,3.63
2023-04-23T13:19:05.118Z,1.77
2023-04-23T13:21:31.644Z,1.83
2023-04-23T13:23:58.181Z,2.13
2023-04-23T13:26:25.008Z,2.38
2023-04-23T13:28:51.589Z,1.60
2023-04-23T13:31:18.262Z,1.70
2023-04-23T13:33:44.857Z,1.10
2023-04-23T13:36:11.410Z,1.42
2023-04-23T13:38:38.058Z,1.15
2023-04-23T13:41:04.756Z,1.10
2023-04-23T13:43:31.321Z,1.52
2023-04-23T13:45:58.042Z,1.15
2023-04-23T13:48:28.681Z,1.38
2023-04-23T13:50:55.823Z,1.58
2023-04-23T13:53:22.854Z,1.38
2023-04-23T13:55:49.666Z,1.52
2023-04-23T13:58:16.509Z,1.92
2023-04-23T14:00:43.390Z,1.60
2023-04-23T14:03:10.150Z,1.40
2023-04-23T14:05:37.030Z,1.25
2023-04-23T14:08:03.603Z,1.30
2023-04-23T14:10:30.180Z,1.10
2023-04-23T14:12:57.290Z,1.02
2023-04-23T14:15:23.823Z,1.30
2023-04-23T14:17:50.544Z,1.10
2023-04-23T14:20:19.699Z,2.10
2023-04-23T14:22:51.359Z,2.47
2023-04-23T14:25:35.724Z,1.90
2023-04-23T14:28:17.014Z,2.10
2023-04-23T14:30:43.598Z,1.98
2023-04-23T14:33:10.129Z,1.55
2023-04-23T14:38:08.377Z,1.48
2023-04-23T14:40:35.045Z,1.10
2023-04-23T14:43:14.536Z,1.60
2023-04-23T14:45:41.901Z,0.98
2023-04-23T14:48:08.523Z,1.10
2023-04-23T14:50:35.207Z,1.00
2023-04-23T14:53:04.179Z,1.10
2023-04-23T14:55:30.970Z,0.98
2023-04-23T14:57:57.518Z,1.20
2023-04-23T15:00:24.183Z,1.13
2023-04-23T15:02:51.048Z,1.20
2023-04-23T15:05:19.770Z,1.10
2023-04-23T15:07:46.433Z,1.00
2023-04-23T15:10:15.007Z,1.23
2023-04-23T15:12:41.500Z,1.10
2023-04-23T15:15:48.252Z,1.15
2023-04-23T15:18:15.800Z,0.95
2023-04-23T15:20:43.590Z,0.88
2023-04-23T15:23:10.813Z,1.08
2023-04-23T15:25:39.112Z,1.10
2023-04-23T15:28:07.030Z,1.27
2023-04-23T15:30:33.603Z,1.30
2023-04-23T15:33:00.264Z,1.20
2023-04-23T15:35:27.763Z,1.00
2023-04-23T15:37:54.731Z,1.65
2023-04-23T15:40:21.440Z,1.70
2023-04-23T15:42:49.964Z,1.48
2023-04-23T15:45:16.972Z,1.48
2023-04-23T15:47:43.945Z,1.83
2023-04-23T15:50:12.294Z,1.35
2023-04-23T15:52:41.322Z,1.38
2023-04-23T15:55:08.247Z,1.20
2023-04-23T15:57:34.820Z,1.30
2023-04-23T16:00:01.478Z,1.60
2023-04-23T16:02:38.634Z,1.75
2023-04-23T16:05:05.528Z,1.70
2023-04-23T16:07:32.096Z,1.80
2023-04-23T16:09:58.741Z,1.55
2023-04-23T16:12:25.383Z,1.52
2023-04-23T16:14:51.966Z,1.77
2023-04-23T16:17:18.595Z,1.30
2023-04-23T16:19:45.420Z,1.77
2023-04-23T16:22:12.552Z,1.65
2023-04-23T16:24:39.022Z,1.88
2023-04-23T16:27:06.690Z,2.05
2023-04-23T16:29:33.408Z,2.05
2023-04-23T16:31:59.943Z,2.00
2023-04-23T16:34:26.710Z,1.92
2023-04-23T16:36:53.275Z,2.10
2023-04-23T16:39:19.945Z,2.50
2023-04-23T16:41:47.019Z,2.47
2023-04-23T16:44:13.656Z,2.33
2023-04-23T16:46:40.289Z,2.92
2023-04-23T16:49:06.907Z,2.58
2023-04-23T16:51:33.507Z,2.55
2023-04-23T16:54:00.234Z,3.15
2023-04-23T16:56:27.446Z,2.90
2023-04-23T16:58:54.023Z,2.70
2023-04-23T17:01:20.705Z,2.53
2023-04-23T17:03:47.427Z,2.28
2023-04-23T17:06:25.001Z,1.85
2023-04-23T17:08:51.611Z,2.00
2023-04-23T17:11:18.184Z,1.85
2023-04-23T17:13:44.881Z,3.13
2023-04-23T17:16:11.700Z,2.03
2023-04-23T17:18:38.205Z,2.25
2023-04-23T17:21:04.873Z,1.95
2023-04-23T17:23:31.437Z,2.10
2023-04-23T17:25:58.077Z,2.25
2023-04-23T17:28:24.659Z,1.88
2023-04-23T17:30:52.265Z,1.58
2023-04-23T17:33:19.208Z,2.20
2023-04-23T17:35:46.754Z,2.33
2023-04-23T17:38:13.984Z,1.90
2023-04-23T17:40:41.167Z,2.33
2023-04-23T17:43:07.777Z,2.25
2023-04-23T17:45:34.368Z,2.33
2023-04-23T17:48:00.982Z,2.40
2023-04-23T17:50:28.477Z,2.28
2023-04-23T17:52:56.508Z,2.03
2023-04-23T17:55:23.283Z,2.20
2023-04-23T17:57:50.394Z,1.98
2023-04-23T18:00:18.017Z,2.03
2023-04-23T18:02:46.192Z,2.33
2023-04-23T18:05:14.669Z,2.70
2023-04-23T18:07:42.992Z,3.65
2023-04-23T18:10:12.137Z,2.92
2023-04-23T18:12:39.621Z,2.55
2023-04-23T18:15:08.553Z,3.05
2023-04-23T18:17:35.421Z,4.38
2023-04-23T18:20:02.175Z,5.63
2023-04-23T18:22:29.112Z,9.07
2023-04-23T18:24:55.967Z,4.90
2023-04-23T18:27:22.670Z,5.30
2023-04-23T18:29:49.508Z,4.57
2023-04-23T18:32:27.484Z,2.75
2023-04-23T18:35:01.925Z,2.90
2023-04-23T18:37:52.803Z,3.28
2023-04-23T18:40:19.669Z,3.35
2023-04-23T18:42:46.227Z,3.58
2023-04-23T18:45:12.795Z,3.28
2023-04-23T18:47:49.880Z,5.00
2023-04-23T18:50:36.598Z,4.20
2023-04-23T18:53:03.433Z,2.97
2023-04-23T18:55:30.109Z,2.78
2023-04-23T18:57:57.249Z,3.35
2023-04-23T19:00:23.759Z,3.03
2023-04-23T19:02:50.453Z,3.47
2023-04-23T19:05:17.120Z,2.75
2023-04-23T19:07:43.908Z,2.80
2023-04-23T19:10:12.029Z,2.50
2023-04-23T19:12:38.581Z,2.65
2023-04-23T19:15:05.943Z,2.92
2023-04-23T19:17:32.571Z,2.75
2023-04-23T19:19:59.214Z,2.80
2023-04-23T19:22:26.045Z,2.85
2023-04-23T19:24:52.944Z,3.03
2023-04-23T19:27:19.984Z,2.70
2023-04-23T19:29:48.330Z,3.03
2023-04-23T19:32:14.979Z,2.58
2023-04-23T19:34:41.732Z,2.50
2023-04-23T19:37:08.369Z,2.92
2023-04-23T19:39:34.931Z,2.75
2023-04-23T19:42:02.635Z,2.85
2023-04-23T19:44:29.315Z,3.00
2023-04-23T19:46:56.428Z,3.30
2023-04-23T19:49:24.311Z,2.75
2023-04-23T19:51:53.258Z,4.00
2023-04-23T19:54:19.860Z,3.72
2023-04-23T19:56:46.500Z,3.25
2023-04-23T19:59:20.785Z,3.10
2023-04-23T20:01:48.034Z,3.25
2023-04-23T20:04:16.419Z,3.10
2023-04-23T20:06:43.330Z,2.85
2023-04-23T20:09:17.920Z,2.80
2023-04-23T20:11:46.009Z,2.55
2023-04-23T20:14:15.340Z,2.45
2023-04-23T20:16:41.991Z,2.38
2023-04-23T20:19:11.889Z,2.63
2023-04-23T20:21:39.205Z,2.50
2023-04-23T20:24:13.580Z,2.55
2023-04-23T20:26:41.636Z,2.80
2023-04-23T20:29:08.286Z,2.70
2023-04-23T20:31:35.668Z,2.70
2023-04-23T20:34:02.479Z,2.33
2023-04-23T20:36:30.359Z,2.58
2023-04-23T20:38:58.839Z,2.45
2023-04-23T20:41:30.272Z,2.38
2023-04-23T20:44:01.907Z,2.42
2023-04-23T20:46:32.129Z,2.30
2023-04-23T20:49:00.863Z,2.60
2023-04-23T20:51:33.189Z,3.05
2023-04-23T20:54:00.057Z,2.50
2023-04-23T20:56:28.681Z,2.25
2023-04-23T20:58:57.310Z,1.95
2023-04-23T21:01:24.843Z,2.20
2023-04-23T21:03:53.419Z,1.90
2023-04-23T21:06:21.335Z,2.17
2023-04-23T21:08:48.390Z,2.00
2023-04-23T21:11:17.586Z,2.28
2023-04-23T21:13:47.591Z,2.00
2023-04-23T21:16:14.490Z,2.13
2023-04-23T21:18:41.341Z,2.08
2023-04-23T21:21:08.168Z,2.10
2023-04-23T21:23:35.094Z,1.92
2023-04-23T21:26:01.799Z,1.83
2023-04-23T21:28:28.356Z,1.90
2023-04-23T21:30:57.303Z,1.80
2023-04-23T21:33:25.434Z,1.83
2023-04-23T21:35:53.253Z,2.03
2023-04-23T21:38:20.460Z,1.80
2023-04-23T21:40:47.102Z,1.75
2023-04-23T21:43:14.000Z,1.65
2023-04-23T21:45:40.715Z,1.60
2023-04-23T21:48:07.860Z,1.63
2023-04-23T21:50:34.702Z,1.52
2023-04-23T21:53:03.927Z,2.55
2023-04-23T21:55:31.638Z,1.42
2023-04-23T21:58:09.765Z,1.30
2023-04-23T22:00:44.290Z,1.33
2023-04-23T22:03:11.392Z,1.33
2023-04-23T22:05:38.519Z,1.60
2023-04-23T22:08:06.780Z,1.40
2023-04-23T22:10:34.007Z,1.52
2023-04-23T22:13:01.254Z,1.38
2023-04-23T22:15:29.258Z,1.17
2023-04-23T22:17:59.122Z,1.10
2023-04-23T22:20:25.800Z,1.15
2023-04-23T22:22:52.406Z,1.25
2023-04-23T22:25:19.425Z,1.45
2023-04-23T22:27:46.079Z,1.10
2023-04-23T22:30:13.049Z,1.20
2023-04-23T22:32:40.916Z,1.23
2023-04-23T22:35:08.244Z,1.08
2023-04-23T22:37:35.047Z,0.95
2023-04-23T22:40:02.209Z,1.00
2023-04-23T22:42:28.768Z,1.08
2023-04-23T22:44:55.506Z,1.17
2023-04-23T22:47:22.319Z,1.10
2023-04-23T22:49:49.453Z,0.90
2023-04-23T22:52:16.747Z,1.10
2023-04-23T22:54:43.826Z,1.27
2023-04-23T22:57:11.742Z,0.93
2023-04-23T22:59:41.656Z,0.80
2023-04-23T23:02:08.494Z,1.25
2023-04-23T23:04:37.813Z,1.00
2023-04-23T23:07:08.485Z,0.98
2023-04-23T23:09:35.391Z,0.90
2023-04-23T23:12:03.477Z,1.10
2023-04-23T23:14:31.751Z,0.70
2023-04-23T23:16:58.918Z,0.93
2023-04-23T23:19:28.986Z,0.68
2023-04-23T23:21:55.635Z,0.90
2023-04-23T23:24:22.808Z,0.60
2023-04-23T23:26:50.448Z,0.70
2023-04-23T23:29:16.994Z,0.70
2023-04-23T23:31:44.208Z,0.60
